createdAt,value
2022-12-24T00:01:22.082Z,98397.84
2022-12-24T00:03:50.928Z,98394.69
2022-12-24T00:06:23.902Z,98405.81
2022-12-24T00:08:52.880Z,98403.59
2022-12-24T00:11:21.254Z,98392.78
2022-12-24T00:13:50.054Z,98395.09
2022-12-24T00:16:19.618Z,98387.59
2022-12-24T00:18:47.277Z,98390.03
2022-12-24T00:21:16.128Z,98382.41
2022-12-24T00:23:43.769Z,98376.81
2022-12-24T00:26:12.168Z,98374.38
2022-12-24T00:28:39.688Z,98368.13
2022-12-24T00:31:13.039Z,98372.97
2022-12-24T00:33:43.031Z,98369.75
2022-12-24T00:36:11.486Z,98379.97
2022-12-24T00:38:46.601Z,98400.91
2022-12-24T00:41:29.428Z,98406.91
2022-12-24T00:44:06.529Z,98433.25
2022-12-24T00:46:35.535Z,98452.41
2022-12-24T00:49:03.372Z,98457.47
2022-12-24T00:51:30.924Z,98467.22
2022-12-24T00:54:05.202Z,98467.19
2022-12-24T00:56:32.848Z,98470.34
2022-12-24T00:59:00.390Z,98455.94
2022-12-24T01:01:28.132Z,98421.69
2022-12-24T01:04:15.721Z,98412.19
2022-12-24T01:06:43.723Z,98418.19
2022-12-24T01:09:11.169Z,98405.13
2022-12-24T01:11:39.434Z,98402.50
2022-12-24T01:14:07.872Z,98403.63
2022-12-24T01:16:35.340Z,98418.69
2022-12-24T01:19:02.658Z,98415.84
2022-12-24T01:21:30.199Z,98406.13
2022-12-24T01:23:57.690Z,98398.25
2022-12-24T01:26:26.121Z,98398.03
2022-12-24T01:28:53.935Z,98398.16
2022-12-24T01:31:21.644Z,98387.66
2022-12-24T01:33:50.371Z,98378.34
2022-12-24T01:36:20.064Z,98391.22
2022-12-24T01:38:47.184Z,98376.53
2022-12-24T01:41:40.694Z,98380.97
2022-12-24T01:44:31.527Z,98381.78
2022-12-24T01:47:14.762Z,98387.66
2022-12-24T01:49:52.788Z,98395.56
2022-12-24T01:52:30.525Z,98400.22
2022-12-24T01:55:08.290Z,98401.84
2022-12-24T01:57:47.040Z,98393.03
2022-12-24T02:00:16.347Z,98399.94
2022-12-24T02:02:48.208Z,98400.16
2022-12-24T02:05:34.695Z,98401.69
2022-12-24T02:08:04.065Z,98403.13
2022-12-24T02:10:37.567Z,98405.22
2022-12-24T02:13:04.991Z,98408.53
2022-12-24T02:15:54.106Z,98400.34
2022-12-24T02:18:34.658Z,98414.06
2022-12-24T02:21:36.520Z,98416.69
2022-12-24T02:24:25.221Z,98421.28
2022-12-24T02:27:30.406Z,98416.97
2022-12-24T02:30:01.700Z,98413.38
2022-12-24T02:32:34.555Z,98428.25
2022-12-24T02:35:10.471Z,98414.25
2022-12-24T02:37:44.840Z,98415.66
2022-12-24T02:40:37.176Z,98420.09
2022-12-24T02:43:12.146Z,98419.31
2022-12-24T02:45:40.990Z,98408.00
2022-12-24T02:48:10.714Z,98415.97
2022-12-24T02:50:39.906Z,98428.25
2022-12-24T02:53:11.088Z,98421.06
2022-12-24T02:56:01.200Z,98436.81
2022-12-24T02:58:38.514Z,98430.75
2022-12-24T03:01:32.147Z,98430.84
2022-12-24T03:04:40.772Z,98425.34
2022-12-24T03:07:25.370Z,98421.88
2022-12-24T03:10:15.065Z,98426.75
2022-12-24T03:12:47.370Z,98424.94
2022-12-24T03:15:25.732Z,98430.19
2022-12-24T03:18:02.828Z,98436.56
2022-12-24T03:20:42.444Z,98439.53
2022-12-24T03:23:11.979Z,98438.72
2022-12-24T03:25:42.582Z,98440.66
2022-12-24T03:28:13.244Z,98429.34
2022-12-24T03:30:48.667Z,98442.47
2022-12-24T03:33:17.492Z,98448.41
2022-12-24T03:35:45.868Z,98446.28
2022-12-24T03:38:13.003Z,98452.84
2022-12-24T03:40:40.455Z,98449.66
2022-12-24T03:43:07.979Z,98446.56
2022-12-24T03:45:35.521Z,98449.44
2022-12-24T03:48:02.743Z,98452.06
2022-12-24T03:50:30.486Z,98462.09
2022-12-24T03:53:03.800Z,98460.72
2022-12-24T03:55:34.547Z,98455.38
2022-12-24T03:58:02.199Z,98463.28
2022-12-24T04:00:29.424Z,98463.22
2022-12-24T04:02:56.974Z,98453.00
2022-12-24T04:05:24.304Z,98466.19
2022-12-24T04:07:51.806Z,98459.59
2022-12-24T04:10:19.422Z,98454.13
2022-12-24T04:12:46.666Z,98460.50
2022-12-24T04:15:14.115Z,98458.91
2022-12-24T04:17:42.644Z,98459.13
2022-12-24T04:20:13.437Z,98460.50
2022-12-24T04:22:42.922Z,98460.25
2022-12-24T04:25:10.783Z,98471.56
2022-12-24T04:27:40.070Z,98470.22
2022-12-24T04:30:08.106Z,98474.53
2022-12-24T04:32:35.604Z,98473.75
2022-12-24T04:35:03.122Z,98464.34
2022-12-24T04:37:30.402Z,98467.41
2022-12-24T04:39:57.921Z,98471.41
2022-12-24T04:42:25.379Z,98465.84
2022-12-24T04:44:52.761Z,98461.94
2022-12-24T04:47:20.288Z,98466.81
2022-12-24T04:49:47.649Z,98461.84
2022-12-24T04:52:14.693Z,98469.72
2022-12-24T04:54:42.224Z,98465.53
2022-12-24T04:57:11.686Z,98461.69
2022-12-24T04:59:39.283Z,98465.25
2022-12-24T05:02:07.820Z,98474.69
2022-12-24T05:04:42.350Z,98463.44
2022-12-24T05:07:09.813Z,98469.25
2022-12-24T05:09:37.308Z,98455.06
2022-12-24T05:12:05.411Z,98472.25
2022-12-24T05:14:34.842Z,98460.84
2022-12-24T05:17:02.037Z,98468.97
2022-12-24T05:19:34.425Z,98482.56
2022-12-24T05:22:20.247Z,98475.44
2022-12-24T05:25:08.548Z,98474.06
2022-12-24T05:27:36.423Z,98480.78
2022-12-24T05:30:04.212Z,98480.19
2022-12-24T05:32:31.646Z,98491.13
2022-12-24T05:34:59.235Z,98480.75
2022-12-24T05:37:26.698Z,98487.19
2022-12-24T05:39:54.078Z,98482.00
2022-12-24T05:42:23.259Z,98497.34
2022-12-24T05:44:50.681Z,98500.59
2022-12-24T05:47:18.135Z,98510.72
2022-12-24T05:49:45.715Z,98502.44
2022-12-24T05:52:12.773Z,98500.72
2022-12-24T05:54:39.993Z,98490.19
2022-12-24T05:57:08.437Z,98512.66
2022-12-24T05:59:36.039Z,98496.72
2022-12-24T06:02:04.560Z,98516.59
2022-12-24T06:04:31.926Z,98518.25
2022-12-24T06:06:59.293Z,98513.44
2022-12-24T06:09:27.789Z,98519.09
2022-12-24T06:11:55.204Z,98514.25
2022-12-24T06:14:22.379Z,98528.72
2022-12-24T06:16:49.911Z,98519.81
2022-12-24T06:19:17.156Z,98531.19
2022-12-24T06:21:44.596Z,98527.56
2022-12-24T06:24:12.076Z,98531.19
2022-12-24T06:26:39.478Z,98540.13
2022-12-24T06:29:06.940Z,98542.50
2022-12-24T06:31:34.456Z,98564.75
2022-12-24T06:34:02.938Z,98557.53
2022-12-24T06:36:30.929Z,98560.16
2022-12-24T06:38:58.457Z,98547.16
2022-12-24T06:41:25.852Z,98552.56
2022-12-24T06:43:54.211Z,98560.41
2022-12-24T06:46:23.352Z,98566.69
2022-12-24T06:48:51.069Z,98570.22
2022-12-24T06:51:20.229Z,98561.94
2022-12-24T06:53:53.863Z,98572.69
2022-12-24T06:56:21.441Z,98565.13
2022-12-24T06:58:51.058Z,98570.22
2022-12-24T07:01:21.344Z,98571.97
2022-12-24T07:03:48.999Z,98567.31
2022-12-24T07:06:31.350Z,98579.25
2022-12-24T07:08:58.938Z,98588.72
2022-12-24T07:11:27.460Z,98600.19
2022-12-24T07:13:54.639Z,98592.81
2022-12-24T07:16:22.254Z,98597.38
2022-12-24T07:18:50.593Z,98615.06
2022-12-24T07:21:18.059Z,98598.72
2022-12-24T07:23:45.470Z,98594.34
2022-12-24T07:26:12.988Z,98613.59
2022-12-24T07:28:40.449Z,98625.03
2022-12-24T07:31:08.898Z,98618.66
2022-12-24T07:33:36.385Z,98625.78
2022-12-24T07:36:09.384Z,98630.19
2022-12-24T07:38:38.574Z,98627.41
2022-12-24T07:41:06.040Z,98628.13
2022-12-24T07:43:34.853Z,98637.44
2022-12-24T07:46:02.739Z,98638.38
2022-12-24T07:48:31.855Z,98647.19
2022-12-24T07:51:00.200Z,98645.25
2022-12-24T07:53:28.978Z,98645.66
2022-12-24T07:55:59.151Z,98649.06
2022-12-24T07:58:32.497Z,98650.72
2022-12-24T08:01:00.876Z,98660.41
2022-12-24T08:03:30.441Z,98670.94
2022-12-24T08:05:58.887Z,98681.31
2022-12-24T08:08:26.477Z,98687.06
2022-12-24T08:10:53.995Z,98683.19
2022-12-24T08:13:21.247Z,98680.22
2022-12-24T08:15:49.789Z,98687.38
2022-12-24T08:18:17.212Z,98688.16
2022-12-24T08:20:44.643Z,98691.34
2022-12-24T08:23:12.213Z,98719.25
2022-12-24T08:25:46.883Z,98702.50
2022-12-24T08:28:16.157Z,98684.88
2022-12-24T08:30:44.081Z,98711.56
2022-12-24T08:33:12.525Z,98731.78
2022-12-24T08:35:40.529Z,98729.84
2022-12-24T08:38:08.159Z,98733.75
2022-12-24T08:40:35.493Z,98742.66
2022-12-24T08:43:03.252Z,98740.72
2022-12-24T08:45:39.648Z,98749.63
2022-12-24T08:48:09.944Z,98741.78
2022-12-24T08:50:40.991Z,98766.72
2022-12-24T08:53:09.700Z,98771.28
2022-12-24T08:55:39.790Z,98783.72
2022-12-24T08:58:07.451Z,98796.09
2022-12-24T09:00:34.962Z,98786.41
2022-12-24T09:03:02.562Z,98797.22
2022-12-24T09:05:31.682Z,98798.09
2022-12-24T09:08:02.097Z,98802.63
2022-12-24T09:10:29.236Z,98793.78
2022-12-24T09:12:57.765Z,98806.91
2022-12-24T09:15:25.126Z,98796.34
2022-12-24T09:17:52.645Z,98805.06
2022-12-24T09:20:20.037Z,98801.19
2022-12-24T09:22:47.533Z,98802.13
2022-12-24T09:25:15.071Z,98800.25
2022-12-24T09:27:43.413Z,98803.47
2022-12-24T09:30:11.265Z,98817.38
2022-12-24T09:32:44.595Z,98813.88
2022-12-24T09:35:11.990Z,98820.59
2022-12-24T09:37:39.437Z,98814.84
2022-12-24T09:40:07.312Z,98829.22
2022-12-24T09:42:52.263Z,98827.81
2022-12-24T09:45:42.422Z,98850.81
2022-12-24T09:48:25.446Z,98844.81
2022-12-24T09:51:12.033Z,98852.84
2022-12-24T09:53:53.325Z,98846.78
2022-12-24T09:56:26.050Z,98854.69
2022-12-24T09:58:57.483Z,98859.56
2022-12-24T10:01:25.404Z,98862.34
2022-12-24T10:03:56.275Z,98866.66
2022-12-24T10:06:58.905Z,98870.25
2022-12-24T10:09:57.595Z,98884.47
2022-12-24T10:12:44.431Z,98883.50
2022-12-24T10:16:11.361Z,98891.44
2022-12-24T10:18:59.145Z,98893.94
2022-12-24T10:21:36.604Z,98900.78
2022-12-24T10:24:10.643Z,98905.25
2022-12-24T10:27:07.274Z,98906.69
2022-12-24T10:29:44.198Z,98899.72
2022-12-24T10:32:21.593Z,98911.47
2022-12-24T10:35:02.471Z,98917.41
2022-12-24T10:37:32.026Z,98916.06
2022-12-24T10:40:01.381Z,98926.63
2022-12-24T10:42:51.649Z,98939.13
2022-12-24T10:45:24.267Z,98940.81
2022-12-24T10:47:57.858Z,98943.75
2022-12-24T10:50:31.290Z,98957.03
2022-12-24T10:53:28.777Z,98957.56
2022-12-24T10:56:12.566Z,98953.69
2022-12-24T10:58:51.458Z,98957.69
2022-12-24T11:01:18.844Z,98964.41
2022-12-24T11:03:46.166Z,98967.97
2022-12-24T11:06:21.453Z,98972.13
2022-12-24T11:08:49.876Z,98979.19
2022-12-24T11:11:25.384Z,98984.81
2022-12-24T11:13:59.857Z,98984.28
2022-12-24T11:16:38.179Z,98991.22
2022-12-24T11:19:16.206Z,99002.34
2022-12-24T11:21:43.471Z,99000.78
2022-12-24T11:24:13.770Z,99011.31
2022-12-24T11:26:44.445Z,99007.22
2022-12-24T11:29:28.686Z,99004.81
2022-12-24T11:32:18.998Z,99004.03
2022-12-24T11:34:46.200Z,99014.31
2022-12-24T11:37:24.762Z,99012.13
2022-12-24T11:39:58.629Z,99013.03
2022-12-24T11:42:34.055Z,99018.47
2022-12-24T11:45:04.625Z,99013.88
2022-12-24T11:47:39.271Z,99013.88
2022-12-24T11:50:32.461Z,99012.72
2022-12-24T11:53:05.178Z,99017.78
2022-12-24T11:55:53.805Z,99027.47
2022-12-24T11:58:43.055Z,99026.69
2022-12-24T12:01:22.744Z,99031.84
2022-12-24T12:03:58.034Z,99033.22
2022-12-24T12:06:42.377Z,99042.59
2022-12-24T12:09:31.663Z,99049.34
2022-12-24T12:12:14.681Z,99052.91
2022-12-24T12:15:14.152Z,99059.81
2022-12-24T12:17:41.562Z,99065.25
2022-12-24T12:20:24.778Z,99071.94
2022-12-24T12:23:20.849Z,99067.41
2022-12-24T12:25:57.925Z,99068.19
2022-12-24T12:28:50.122Z,99086.50
2022-12-24T12:31:26.812Z,99087.03
2022-12-24T12:34:03.297Z,99093.34
2022-12-24T12:36:38.210Z,99100.22
2022-12-24T12:39:06.857Z,99105.75
2022-12-24T12:41:57.844Z,99118.06
2022-12-24T12:45:01.817Z,99118.75
2022-12-24T12:48:01.551Z,99126.75
2022-12-24T12:50:52.084Z,99133.34
2022-12-24T12:53:57.407Z,99137.34
2022-12-24T12:56:32.657Z,99143.00
2022-12-24T12:59:22.119Z,99146.41
2022-12-24T13:02:10.229Z,99154.97
2022-12-24T13:04:50.127Z,99156.84
2022-12-24T13:07:37.799Z,99165.41
2022-12-24T13:10:34.340Z,99168.59
2022-12-24T13:13:33.096Z,99171.94
2022-12-24T13:16:03.632Z,99177.13
2022-12-24T13:18:50.566Z,99184.41
2022-12-24T13:21:22.128Z,99188.94
2022-12-24T13:23:50.477Z,99199.66
2022-12-24T13:26:18.992Z,99199.09
2022-12-24T13:28:46.568Z,99204.44
2022-12-24T13:31:24.916Z,99204.06
2022-12-24T13:34:02.438Z,99202.66
2022-12-24T13:37:04.940Z,99199.66
2022-12-24T13:40:01.035Z,99201.63
2022-12-24T13:42:59.409Z,99206.84
2022-12-24T13:45:30.242Z,99209.16
2022-12-24T13:48:06.687Z,99211.13
2022-12-24T13:50:41.676Z,99218.22
2022-12-24T13:53:38.714Z,99213.16
2022-12-24T13:56:16.999Z,99223.38
2022-12-24T13:58:48.683Z,99218.34
2022-12-24T14:01:23.271Z,99215.16
2022-12-24T14:03:58.395Z,99225.81
2022-12-24T14:06:40.759Z,99224.28
2022-12-24T14:09:20.450Z,99218.94
2022-12-24T14:11:54.465Z,99223.84
2022-12-24T14:14:33.862Z,99232.13
2022-12-24T14:17:19.998Z,99226.81
2022-12-24T14:19:52.105Z,99224.47
2022-12-24T14:22:30.631Z,99235.16
2022-12-24T14:25:18.028Z,99236.25
2022-12-24T14:28:17.719Z,99237.41
2022-12-24T14:30:45.187Z,99244.22
2022-12-24T14:33:35.275Z,99248.63
2022-12-24T14:36:04.864Z,99258.44
2022-12-24T14:38:33.909Z,99258.66
2022-12-24T14:41:22.638Z,99274.44
2022-12-24T14:44:17.120Z,99273.72
2022-12-24T14:47:07.515Z,99270.03
2022-12-24T14:49:59.119Z,99274.34
2022-12-24T14:53:07.201Z,99281.44
2022-12-24T14:55:50.345Z,99294.66
2022-12-24T14:58:47.772Z,99292.56
2022-12-24T15:01:29.668Z,99296.94
2022-12-24T15:04:14.309Z,99306.00
2022-12-24T15:06:53.509Z,99308.69
2022-12-24T15:09:26.603Z,99316.66
2022-12-24T15:12:00.607Z,99316.59
2022-12-24T15:14:30.648Z,99319.72
2022-12-24T15:17:04.510Z,99323.41
2022-12-24T15:19:39.113Z,99326.06
2022-12-24T15:22:21.825Z,99332.34
2022-12-24T15:24:49.432Z,99339.97
2022-12-24T15:27:22.719Z,99338.88
2022-12-24T15:29:56.911Z,99346.03
2022-12-24T15:32:25.158Z,99351.06
2022-12-24T15:34:56.097Z,99354.03
2022-12-24T15:37:39.992Z,99353.84
2022-12-24T15:40:11.493Z,99362.91
2022-12-24T15:42:42.957Z,99366.22
2022-12-24T15:45:28.397Z,99368.66
2022-12-24T15:48:00.904Z,99358.28
2022-12-24T15:50:34.065Z,99366.59
2022-12-24T15:53:19.504Z,99371.56
2022-12-24T15:56:10.397Z,99366.06
2022-12-24T15:58:42.080Z,99368.66
2022-12-24T16:01:10.461Z,99370.34
2022-12-24T16:03:40.851Z,99379.91
2022-12-24T16:06:11.681Z,99389.34
2022-12-24T16:08:43.715Z,99387.31
2022-12-24T16:11:25.554Z,99396.00
2022-12-24T16:14:30.598Z,99393.22
2022-12-24T16:16:58.958Z,99387.25
2022-12-24T16:19:37.675Z,99391.34
2022-12-24T16:22:25.209Z,99386.44
2022-12-24T16:24:55.948Z,99406.31
2022-12-24T16:27:23.461Z,99407.34
2022-12-24T16:29:51.760Z,99413.91
2022-12-24T16:32:38.361Z,99415.97
2022-12-24T16:35:14.227Z,99416.97
2022-12-24T16:37:41.827Z,99423.22
2022-12-24T16:40:19.405Z,99426.19
2022-12-24T16:43:08.144Z,99434.16
2022-12-24T16:45:36.932Z,99427.91
2022-12-24T16:48:07.676Z,99436.34
2022-12-24T16:50:35.810Z,99428.31
2022-12-24T16:53:02.999Z,99423.25
2022-12-24T16:55:31.516Z,99427.94
2022-12-24T16:57:59.754Z,99435.06
2022-12-24T17:00:33.553Z,99434.13
2022-12-24T17:03:00.916Z,99427.97
2022-12-24T17:05:30.417Z,99429.81
2022-12-24T17:08:01.771Z,99433.50
2022-12-24T17:10:29.850Z,99438.81
2022-12-24T17:12:58.252Z,99444.91
2022-12-24T17:15:25.508Z,99447.97
2022-12-24T17:17:54.815Z,99456.84
2022-12-24T17:20:24.419Z,99452.13
2022-12-24T17:22:52.340Z,99451.44
2022-12-24T17:25:19.999Z,99455.63
2022-12-24T17:27:53.451Z,99455.75
2022-12-24T17:30:20.988Z,99461.94
2022-12-24T17:32:50.256Z,99454.94
2022-12-24T17:35:19.903Z,99456.63
2022-12-24T17:37:53.491Z,99453.75
2022-12-24T17:40:21.757Z,99456.38
2022-12-24T17:42:48.929Z,99467.00
2022-12-24T17:45:16.479Z,99456.81
2022-12-24T17:47:46.149Z,99468.47
2022-12-24T17:50:13.831Z,99482.44
2022-12-24T17:52:41.003Z,99487.97
2022-12-24T17:55:09.557Z,99483.56
2022-12-24T17:57:37.269Z,99497.91
2022-12-24T18:00:05.448Z,99491.59
2022-12-24T18:02:32.924Z,99494.22
2022-12-24T18:05:00.629Z,99495.25
2022-12-24T18:07:30.173Z,99496.25
2022-12-24T18:09:58.588Z,99500.91
2022-12-24T18:12:26.193Z,99504.03
2022-12-24T18:14:54.640Z,99510.31
2022-12-24T18:17:22.305Z,99501.41
2022-12-24T18:19:50.099Z,99510.38
2022-12-24T18:22:17.466Z,99512.03
2022-12-24T18:24:45.918Z,99512.78
2022-12-24T18:27:25.766Z,99518.91
2022-12-24T18:29:53.272Z,99527.50
2022-12-24T18:32:26.864Z,99530.84
2022-12-24T18:34:54.071Z,99524.44
2022-12-24T18:37:21.289Z,99529.47
2022-12-24T18:39:50.667Z,99531.84
2022-12-24T18:42:20.191Z,99534.34
2022-12-24T18:44:47.415Z,99538.34
2022-12-24T18:47:15.239Z,99535.44
2022-12-24T18:49:42.523Z,99537.94
2022-12-24T18:52:11.603Z,99546.66
2022-12-24T18:54:40.528Z,99539.56
2022-12-24T18:57:08.005Z,99546.47
2022-12-24T18:59:38.242Z,99532.47
2022-12-24T19:02:05.699Z,99537.16
2022-12-24T19:04:33.484Z,99542.41
2022-12-24T19:07:00.859Z,99551.28
2022-12-24T19:09:28.245Z,99546.72
2022-12-24T19:11:55.695Z,99552.78
2022-12-24T19:14:23.174Z,99554.56
2022-12-24T19:16:51.651Z,99556.19
2022-12-24T19:19:24.285Z,99561.44
2022-12-24T19:21:52.180Z,99558.22
2022-12-24T19:24:20.697Z,99557.56
2022-12-24T19:26:49.014Z,99561.09
2022-12-24T19:29:16.587Z,99567.44
2022-12-24T19:31:47.556Z,99566.25
2022-12-24T19:34:15.196Z,99574.84
2022-12-24T19:36:42.690Z,99576.31
2022-12-24T19:39:10.059Z,99574.88
2022-12-24T19:41:37.691Z,99583.78
2022-12-24T19:44:06.048Z,99589.03
2022-12-24T19:46:35.146Z,99593.31
2022-12-24T19:49:14.649Z,99590.50
2022-12-24T19:51:41.896Z,99599.09
2022-12-24T19:54:18.764Z,99598.72
2022-12-24T19:56:46.982Z,99600.69
2022-12-24T19:59:15.356Z,99598.97
2022-12-24T20:01:43.212Z,99606.72
2022-12-24T20:04:10.908Z,99606.88
2022-12-24T20:06:38.225Z,99609.34
2022-12-24T20:09:09.041Z,99607.66
2022-12-24T20:11:36.833Z,99609.09
2022-12-24T20:14:07.249Z,99609.81
2022-12-24T20:16:36.110Z,99622.78
2022-12-24T20:19:06.914Z,99624.34
2022-12-24T20:21:34.756Z,99621.00
2022-12-24T20:24:02.341Z,99621.00
2022-12-24T20:26:30.659Z,99624.66
2022-12-24T20:29:06.580Z,99626.09
2022-12-24T20:31:35.155Z,99629.59
2022-12-24T20:34:07.663Z,99634.06
2022-12-24T20:36:37.500Z,99639.19
2022-12-24T20:39:07.452Z,99633.06
2022-12-24T20:41:34.826Z,99642.88
2022-12-24T20:44:05.083Z,99644.47
2022-12-24T20:46:34.227Z,99645.50
2022-12-24T20:49:01.481Z,99654.19
2022-12-24T20:51:29.521Z,99650.69
2022-12-24T20:53:59.378Z,99652.47
2022-12-24T20:56:28.862Z,99653.59
2022-12-24T20:59:02.605Z,99659.56
2022-12-24T21:01:30.593Z,99644.72
2022-12-24T21:04:00.684Z,99655.88
2022-12-24T21:06:28.014Z,99660.34
2022-12-24T21:08:55.222Z,99660.22
2022-12-24T21:11:41.738Z,99663.84
2022-12-24T21:14:09.973Z,99663.25
2022-12-24T21:16:38.535Z,99662.59
2022-12-24T21:19:07.084Z,99662.03
2022-12-24T21:21:35.071Z,99662.59
2022-12-24T21:24:03.669Z,99659.94
2022-12-24T21:26:32.137Z,99658.97
2022-12-24T21:28:59.961Z,99666.50
2022-12-24T21:31:28.607Z,99679.63
2022-12-24T21:33:58.131Z,99679.38
2022-12-24T21:36:25.672Z,99689.34
2022-12-24T21:38:54.449Z,99678.91
2022-12-24T21:41:26.257Z,99687.53
2022-12-24T21:44:02.134Z,99687.28
2022-12-24T21:46:30.744Z,99683.63
2022-12-24T21:49:16.679Z,99686.28
2022-12-24T21:51:45.246Z,99688.13
2022-12-24T21:54:25.632Z,99691.91
2022-12-24T21:57:13.111Z,99699.00
2022-12-24T21:59:40.790Z,99701.63
2022-12-24T22:02:11.506Z,99708.13
2022-12-24T22:04:38.763Z,99693.09
2022-12-24T22:07:26.185Z,99701.34
2022-12-24T22:10:12.073Z,99690.81
2022-12-24T22:12:39.427Z,99690.94
2022-12-24T22:15:07.473Z,99699.13
2022-12-24T22:17:34.840Z,99691.19
2022-12-24T22:20:02.451Z,99684.09
2022-12-24T22:22:30.526Z,99687.75
2022-12-24T22:24:57.886Z,99687.09
2022-12-24T22:27:25.306Z,99691.53
2022-12-24T22:29:54.791Z,99689.59
2022-12-24T22:32:23.855Z,99687.59
2022-12-24T22:34:51.343Z,99685.06
2022-12-24T22:37:18.987Z,99683.88
2022-12-24T22:39:46.364Z,99686.19
2022-12-24T22:42:13.927Z,99677.16
2022-12-24T22:44:49.111Z,99679.72
2022-12-24T22:47:16.534Z,99689.09
2022-12-24T22:49:44.968Z,99688.13
2022-12-24T22:52:12.075Z,99690.84
2022-12-24T22:54:41.600Z,99700.22
2022-12-24T22:57:09.994Z,99700.34
2022-12-24T22:59:40.223Z,99705.09
2022-12-24T23:02:08.466Z,99700.91
2022-12-24T23:04:39.140Z,99707.16
2022-12-24T23:07:11.443Z,99712.69
2022-12-24T23:09:39.837Z,99724.06
2022-12-24T23:12:08.145Z,99723.84
2022-12-24T23:14:55.081Z,99734.19
2022-12-24T23:17:22.908Z,99737.38
2022-12-24T23:19:50.514Z,99741.97
2022-12-24T23:22:18.969Z,99739.47
2022-12-24T23:24:46.514Z,99751.13
2022-12-24T23:27:13.987Z,99748.47
2022-12-24T23:29:41.506Z,99753.69
2022-12-24T23:32:08.971Z,99752.31
2022-12-24T23:34:42.413Z,99748.75
2022-12-24T23:37:09.954Z,99753.38
2022-12-24T23:39:39.399Z,99752.78
2022-12-24T23:42:06.836Z,99756.31
2022-12-24T23:44:35.423Z,99758.47
2022-12-24T23:47:02.926Z,99761.91
2022-12-24T23:49:32.393Z,99766.41
2022-12-24T23:51:59.562Z,99768.19
2022-12-24T23:54:27.742Z,99763.75
2022-12-24T23:56:56.137Z,99763.91
2022-12-24T23:59:23.689Z,99782.34
